sensor_id;sensor_type;location;lat;lon;timestamp;P1;durP1;ratioP1;P2;durP2;ratioP2
6077;SDS011;3067;49.470;10.394;2023-07-02T00:01:16;4.20;;;3.90;;
6077;SDS011;3067;49.470;10.394;2023-07-02T00:03:43;4.27;;;4.03;;
6077;SDS011;3067;49.470;10.394;2023-07-02T00:06:11;4.10;;;3.80;;
6077;SDS011;3067;49.470;10.394;2023-07-02T00:08:39;4.63;;;4.00;;
6077;SDS011;3067;49.470;10.394;2023-07-02T00:11:07;4.47;;;4.17;;
6077;SDS011;3067;49.470;10.394;2023-07-02T00:13:37;4.90;;;4.50;;
6077;SDS011;3067;49.470;10.394;2023-07-02T00:16:04;4.33;;;4.13;;
6077;SDS011;3067;49.470;10.394;2023-07-02T00:18:32;5.00;;;4.60;;
6077;SDS011;3067;49.470;10.394;2023-07-02T00:21:00;4.80;;;3.73;;
6077;SDS011;3067;49.470;10.394;2023-07-02T00:23:27;4.67;;;4.30;;
6077;SDS011;3067;49.470;10.394;2023-07-02T00:25:56;4.90;;;4.60;;
6077;SDS011;3067;49.470;10.394;2023-07-02T00:28:24;4.90;;;4.50;;
6077;SDS011;3067;49.470;10.394;2023-07-02T00:30:51;4.80;;;4.50;;
6077;SDS011;3067;49.470;10.394;2023-07-02T00:33:18;4.67;;;4.37;;
6077;SDS011;3067;49.470;10.394;2023-07-02T00:35:45;7.00;;;5.10;;
6077;SDS011;3067;49.470;10.394;2023-07-02T00:38:13;4.80;;;4.43;;
6077;SDS011;3067;49.470;10.394;2023-07-02T00:40:40;4.90;;;4.50;;
6077;SDS011;3067;49.470;10.394;2023-07-02T00:43:09;4.50;;;4.20;;
6077;SDS011;3067;49.470;10.394;2023-07-02T00:45:38;8.63;;;4.50;;
6077;SDS011;3067;49.470;10.394;2023-07-02T00:48:05;4.63;;;4.20;;
6077;SDS011;3067;49.470;10.394;2023-07-02T00:50:32;4.80;;;4.37;;
6077;SDS011;3067;49.470;10.394;2023-07-02T00:53:00;5.00;;;4.30;;
6077;SDS011;3067;49.470;10.394;2023-07-02T00:55:27;4.23;;;4.00;;
6077;SDS011;3067;49.470;10.394;2023-07-02T00:57:54;6.40;;;4.00;;
6077;SDS011;3067;49.470;10.394;2023-07-02T01:00:24;5.67;;;4.20;;
6077;SDS011;3067;49.470;10.394;2023-07-02T01:02:54;3.67;;;3.33;;
6077;SDS011;3067;49.470;10.394;2023-07-02T01:05:24;4.20;;;3.90;;
6077;SDS011;3067;49.470;10.394;2023-07-02T01:07:51;3.93;;;3.63;;
6077;SDS011;3067;49.470;10.394;2023-07-02T01:10:18;3.83;;;3.47;;
6077;SDS011;3067;49.470;10.394;2023-07-02T01:12:46;5.83;;;3.80;;
6077;SDS011;3067;49.470;10.394;2023-07-02T01:15:14;3.53;;;3.33;;
6077;SDS011;3067;49.470;10.394;2023-07-02T01:17:43;4.90;;;3.60;;
6077;SDS011;3067;49.470;10.394;2023-07-02T01:20:13;5.10;;;2.97;;
6077;SDS011;3067;49.470;10.394;2023-07-02T01:22:41;4.20;;;3.33;;
6077;SDS011;3067;49.470;10.394;2023-07-02T01:25:08;4.27;;;3.90;;
6077;SDS011;3067;49.470;10.394;2023-07-02T01:27:36;3.90;;;3.57;;
6077;SDS011;3067;49.470;10.394;2023-07-02T01:30:03;3.47;;;3.27;;
6077;SDS011;3067;49.470;10.394;2023-07-02T01:32:31;3.23;;;3.13;;
6077;SDS011;3067;49.470;10.394;2023-07-02T01:34:59;5.60;;;3.93;;
6077;SDS011;3067;49.470;10.394;2023-07-02T01:37:28;3.20;;;3.00;;
6077;SDS011;3067;49.470;10.394;2023-07-02T01:40:02;4.07;;;3.77;;
6077;SDS011;3067;49.470;10.394;2023-07-02T01:42:31;4.77;;;4.00;;
6077;SDS011;3067;49.470;10.394;2023-07-02T01:44:59;5.03;;;4.30;;
6077;SDS011;3067;49.470;10.394;2023-07-02T01:47:26;3.70;;;3.40;;
6077;SDS011;3067;49.470;10.394;2023-07-02T01:49:53;4.10;;;3.80;;
6077;SDS011;3067;49.470;10.394;2023-07-02T01:52:21;8.90;;;3.23;;
6077;SDS011;3067;49.470;10.394;2023-07-02T01:54:49;4.10;;;3.50;;
6077;SDS011;3067;49.470;10.394;2023-07-02T01:57:17;3.90;;;3.60;;
6077;SDS011;3067;49.470;10.394;2023-07-02T01:59:46;3.50;;;3.20;;
6077;SDS011;3067;49.470;10.394;2023-07-02T02:02:13;5.70;;;3.40;;
6077;SDS011;3067;49.470;10.394;2023-07-02T02:04:41;4.43;;;3.10;;
6077;SDS011;3067;49.470;10.394;2023-07-02T02:07:08;3.20;;;3.03;;
6077;SDS011;3067;49.470;10.394;2023-07-02T02:09:36;4.80;;;3.20;;
6077;SDS011;3067;49.470;10.394;2023-07-02T02:12:05;5.90;;;3.60;;
6077;SDS011;3067;49.470;10.394;2023-07-02T02:14:32;4.47;;;3.80;;
6077;SDS011;3067;49.470;10.394;2023-07-02T02:16:59;3.40;;;3.20;;
6077;SDS011;3067;49.470;10.394;2023-07-02T02:19:27;3.47;;;3.20;;
6077;SDS011;3067;49.470;10.394;2023-07-02T02:21:54;4.30;;;3.97;;
6077;SDS011;3067;49.470;10.394;2023-07-02T02:24:21;4.03;;;3.73;;
6077;SDS011;3067;49.470;10.394;2023-07-02T02:26:48;3.47;;;3.27;;
6077;SDS011;3067;49.470;10.394;2023-07-02T02:29:17;5.30;;;3.83;;
6077;SDS011;3067;49.470;10.394;2023-07-02T02:31:45;4.30;;;3.90;;
6077;SDS011;3067;49.470;10.394;2023-07-02T02:34:12;4.70;;;3.30;;
6077;SDS011;3067;49.470;10.394;2023-07-02T02:36:39;3.63;;;3.33;;
6077;SDS011;3067;49.470;10.394;2023-07-02T02:39:06;3.90;;;3.50;;
6077;SDS011;3067;49.470;10.394;2023-07-02T02:41:34;7.13;;;3.67;;
6077;SDS011;3067;49.470;10.394;2023-07-02T02:44:01;3.40;;;3.20;;
6077;SDS011;3067;49.470;10.394;2023-07-02T02:46:30;6.67;;;3.33;;
6077;SDS011;3067;49.470;10.394;2023-07-02T02:48:58;5.30;;;3.30;;
6077;SDS011;3067;49.470;10.394;2023-07-02T02:51:25;3.60;;;3.30;;
6077;SDS011;3067;49.470;10.394;2023-07-02T02:53:53;3.33;;;2.93;;
6077;SDS011;3067;49.470;10.394;2023-07-02T02:56:20;4.40;;;3.00;;
6077;SDS011;3067;49.470;10.394;2023-07-02T02:58:47;6.00;;;3.30;;
6077;SDS011;3067;49.470;10.394;2023-07-02T03:01:15;3.43;;;3.13;;
6077;SDS011;3067;49.470;10.394;2023-07-02T03:03:43;3.70;;;3.50;;
6077;SDS011;3067;49.470;10.394;2023-07-02T03:06:11;3.30;;;3.10;;
6077;SDS011;3067;49.470;10.394;2023-07-02T03:08:39;3.30;;;3.10;;
6077;SDS011;3067;49.470;10.394;2023-07-02T03:11:07;3.27;;;2.97;;
6077;SDS011;3067;49.470;10.394;2023-07-02T03:13:34;5.83;;;3.20;;
6077;SDS011;3067;49.470;10.394;2023-07-02T03:16:01;7.30;;;3.30;;
6077;SDS011;3067;49.470;10.394;2023-07-02T03:18:29;3.97;;;3.40;;
6077;SDS011;3067;49.470;10.394;2023-07-02T03:20:58;3.33;;;3.13;;
6077;SDS011;3067;49.470;10.394;2023-07-02T03:23:26;4.93;;;3.03;;
6077;SDS011;3067;49.470;10.394;2023-07-02T03:25:53;4.67;;;3.10;;
6077;SDS011;3067;49.470;10.394;2023-07-02T03:28:20;3.27;;;3.00;;
6077;SDS011;3067;49.470;10.394;2023-07-02T03:30:48;4.57;;;2.70;;
6077;SDS011;3067;49.470;10.394;2023-07-02T03:33:15;3.53;;;2.90;;
6077;SDS011;3067;49.470;10.394;2023-07-02T03:35:42;3.07;;;2.77;;
6077;SDS011;3067;49.470;10.394;2023-07-02T03:38:11;3.13;;;2.83;;
6077;SDS011;3067;49.470;10.394;2023-07-02T03:40:38;3.97;;;2.90;;
6077;SDS011;3067;49.470;10.394;2023-07-02T03:43:05;3.23;;;2.83;;
6077;SDS011;3067;49.470;10.394;2023-07-02T03:45:33;7.20;;;3.00;;
6077;SDS011;3067;49.470;10.394;2023-07-02T03:48:00;3.77;;;3.13;;
6077;SDS011;3067;49.470;10.394;2023-07-02T03:50:27;11.83;;;2.87;;
6077;SDS011;3067;49.470;10.394;2023-07-02T03:52:54;4.97;;;3.10;;
6077;SDS011;3067;49.470;10.394;2023-07-02T03:55:24;5.87;;;2.60;;
6077;SDS011;3067;49.470;10.394;2023-07-02T03:57:52;3.63;;;2.90;;
6077;SDS011;3067;49.470;10.394;2023-07-02T04:00:19;5.30;;;2.63;;
6077;SDS011;3067;49.470;10.394;2023-07-02T04:02:46;2.70;;;2.53;;
6077;SDS011;3067;49.470;10.394;2023-07-02T04:05:14;4.97;;;3.40;;
6077;SDS011;3067;49.470;10.394;2023-07-02T04:07:41;5.87;;;3.23;;
6077;SDS011;3067;49.470;10.394;2023-07-02T04:10:09;3.07;;;2.80;;
6077;SDS011;3067;49.470;10.394;2023-07-02T04:12:37;3.30;;;2.93;;
6077;SDS011;3067;49.470;10.394;2023-07-02T04:15:05;6.90;;;3.30;;
6077;SDS011;3067;49.470;10.394;2023-07-02T04:17:33;6.93;;;3.37;;
6077;SDS011;3067;49.470;10.394;2023-07-02T04:20:01;4.77;;;3.40;;
6077;SDS011;3067;49.470;10.394;2023-07-02T04:22:29;3.03;;;2.80;;
6077;SDS011;3067;49.470;10.394;2023-07-02T04:24:56;3.63;;;3.33;;
6077;SDS011;3067;49.470;10.394;2023-07-02T04:27:24;3.70;;;3.40;;
6077;SDS011;3067;49.470;10.394;2023-07-02T04:29:52;4.30;;;3.43;;
6077;SDS011;3067;49.470;10.394;2023-07-02T04:32:20;3.67;;;3.30;;
6077;SDS011;3067;49.470;10.394;2023-07-02T04:34:48;3.13;;;2.93;;
6077;SDS011;3067;49.470;10.394;2023-07-02T04:37:15;4.90;;;3.07;;
6077;SDS011;3067;49.470;10.394;2023-07-02T04:39:42;3.60;;;3.30;;
6077;SDS011;3067;49.470;10.394;2023-07-02T04:42:10;4.43;;;3.13;;
6077;SDS011;3067;49.470;10.394;2023-07-02T04:44:40;3.80;;;2.77;;
6077;SDS011;3067;49.470;10.394;2023-07-02T04:47:10;4.87;;;3.03;;
6077;SDS011;3067;49.470;10.394;2023-07-02T04:49:37;4.80;;;3.37;;
6077;SDS011;3067;49.470;10.394;2023-07-02T04:52:05;3.87;;;3.57;;
6077;SDS011;3067;49.470;10.394;2023-07-02T04:54:32;5.53;;;3.47;;
6077;SDS011;3067;49.470;10.394;2023-07-02T04:56:59;6.30;;;3.73;;
6077;SDS011;3067;49.470;10.394;2023-07-02T04:59:27;7.30;;;3.80;;
6077;SDS011;3067;49.470;10.394;2023-07-02T05:01:54;4.20;;;3.13;;
6077;SDS011;3067;49.470;10.394;2023-07-02T05:04:23;7.80;;;4.27;;
6077;SDS011;3067;49.470;10.394;2023-07-02T05:06:50;4.10;;;3.80;;
6077;SDS011;3067;49.470;10.394;2023-07-02T05:09:17;9.27;;;4.80;;
6077;SDS011;3067;49.470;10.394;2023-07-02T05:11:45;7.43;;;5.10;;
6077;SDS011;3067;49.470;10.394;2023-07-02T05:14:12;8.17;;;5.20;;
6077;SDS011;3067;49.470;10.394;2023-07-02T05:16:39;7.97;;;5.13;;
6077;SDS011;3067;49.470;10.394;2023-07-02T05:19:07;10.60;;;4.70;;
6077;SDS011;3067;49.470;10.394;2023-07-02T05:21:36;13.23;;;5.30;;
6077;SDS011;3067;49.470;10.394;2023-07-02T05:24:03;5.07;;;3.90;;
6077;SDS011;3067;49.470;10.394;2023-07-02T05:26:31;4.97;;;4.03;;
6077;SDS011;3067;49.470;10.394;2023-07-02T05:28:58;6.87;;;4.83;;
6077;SDS011;3067;49.470;10.394;2023-07-02T05:31:25;7.30;;;4.50;;
6077;SDS011;3067;49.470;10.394;2023-07-02T05:33:53;12.43;;;5.20;;
6077;SDS011;3067;49.470;10.394;2023-07-02T05:36:20;5.90;;;4.80;;
6077;SDS011;3067;49.470;10.394;2023-07-02T05:38:49;7.10;;;5.20;;
6077;SDS011;3067;49.470;10.394;2023-07-02T05:41:19;13.80;;;5.57;;
6077;SDS011;3067;49.470;10.394;2023-07-02T05:43:46;8.87;;;5.43;;
6077;SDS011;3067;49.470;10.394;2023-07-02T05:46:14;12.70;;;5.83;;
6077;SDS011;3067;49.470;10.394;2023-07-02T05:48:41;13.60;;;6.67;;
6077;SDS011;3067;49.470;10.394;2023-07-02T05:51:09;13.30;;;6.80;;
6077;SDS011;3067;49.470;10.394;2023-07-02T05:53:36;11.07;;;6.50;;
6077;SDS011;3067;49.470;10.394;2023-07-02T05:56:05;9.40;;;6.67;;
6077;SDS011;3067;49.470;10.394;2023-07-02T05:58:33;10.43;;;6.57;;
6077;SDS011;3067;49.470;10.394;2023-07-02T06:01:00;11.27;;;6.63;;
6077;SDS011;3067;49.470;10.394;2023-07-02T06:03:27;11.47;;;6.30;;
6077;SDS011;3067;49.470;10.394;2023-07-02T06:05:55;7.00;;;5.70;;
6077;SDS011;3067;49.470;10.394;2023-07-02T06:08:22;9.57;;;6.40;;
6077;SDS011;3067;49.470;10.394;2023-07-02T06:10:49;10.90;;;6.60;;
6077;SDS011;3067;49.470;10.394;2023-07-02T06:13:18;10.87;;;6.93;;
6077;SDS011;3067;49.470;10.394;2023-07-02T06:15:45;14.10;;;6.50;;
6077;SDS011;3067;49.470;10.394;2023-07-02T06:18:13;14.30;;;6.57;;
6077;SDS011;3067;49.470;10.394;2023-07-02T06:20:42;9.27;;;6.30;;
6077;SDS011;3067;49.470;10.394;2023-07-02T06:23:09;11.23;;;5.50;;
6077;SDS011;3067;49.470;10.394;2023-07-02T06:25:37;8.70;;;6.23;;
6077;SDS011;3067;49.470;10.394;2023-07-02T06:28:04;9.47;;;6.37;;
6077;SDS011;3067;49.470;10.394;2023-07-02T06:30:33;12.10;;;6.40;;
6077;SDS011;3067;49.470;10.394;2023-07-02T06:33:00;8.30;;;5.67;;
6077;SDS011;3067;49.470;10.394;2023-07-02T06:35:27;11.23;;;6.87;;
6077;SDS011;3067;49.470;10.394;2023-07-02T06:37:54;8.87;;;5.97;;
6077;SDS011;3067;49.470;10.394;2023-07-02T06:40:22;12.73;;;7.00;;
6077;SDS011;3067;49.470;10.394;2023-07-02T06:42:49;10.20;;;6.60;;
6077;SDS011;3067;49.470;10.394;2023-07-02T06:45:16;14.27;;;6.47;;
6077;SDS011;3067;49.470;10.394;2023-07-02T06:47:45;13.10;;;6.47;;
6077;SDS011;3067;49.470;10.394;2023-07-02T06:50:12;16.80;;;7.33;;
6077;SDS011;3067;49.470;10.394;2023-07-02T06:52:40;11.37;;;5.90;;
6077;SDS011;3067;49.470;10.394;2023-07-02T06:55:07;8.53;;;5.70;;
6077;SDS011;3067;49.470;10.394;2023-07-02T06:57:35;10.33;;;6.10;;
6077;SDS011;3067;49.470;10.394;2023-07-02T07:00:02;15.03;;;6.83;;
6077;SDS011;3067;49.470;10.394;2023-07-02T07:02:30;11.70;;;6.60;;
6077;SDS011;3067;49.470;10.394;2023-07-02T07:04:58;8.33;;;6.00;;
6077;SDS011;3067;49.470;10.394;2023-07-02T07:07:26;8.13;;;6.07;;
6077;SDS011;3067;49.470;10.394;2023-07-02T07:09:53;9.60;;;6.00;;
6077;SDS011;3067;49.470;10.394;2023-07-02T07:12:20;8.43;;;5.90;;
6077;SDS011;3067;49.470;10.394;2023-07-02T07:14:48;11.83;;;5.80;;
6077;SDS011;3067;49.470;10.394;2023-07-02T07:17:15;12.23;;;6.37;;
6077;SDS011;3067;49.470;10.394;2023-07-02T07:19:42;15.27;;;6.53;;
6077;SDS011;3067;49.470;10.394;2023-07-02T07:22:11;9.53;;;5.50;;
6077;SDS011;3067;49.470;10.394;2023-07-02T07:24:40;11.83;;;5.57;;
6077;SDS011;3067;49.470;10.394;2023-07-02T07:27:07;8.03;;;4.90;;
6077;SDS011;3067;49.470;10.394;2023-07-02T07:29:34;10.40;;;6.40;;
6077;SDS011;3067;49.470;10.394;2023-07-02T07:32:02;8.30;;;6.03;;
6077;SDS011;3067;49.470;10.394;2023-07-02T07:34:29;7.03;;;5.60;;
6077;SDS011;3067;49.470;10.394;2023-07-02T07:36:56;11.53;;;5.17;;
6077;SDS011;3067;49.470;10.394;2023-07-02T07:39:25;8.17;;;5.60;;
6077;SDS011;3067;49.470;10.394;2023-07-02T07:41:53;13.50;;;5.80;;
6077;SDS011;3067;49.470;10.394;2023-07-02T07:44:20;9.17;;;4.93;;
6077;SDS011;3067;49.470;10.394;2023-07-02T07:46:47;10.30;;;5.90;;
6077;SDS011;3067;49.470;10.394;2023-07-02T07:49:14;16.63;;;5.77;;
6077;SDS011;3067;49.470;10.394;2023-07-02T07:51:42;9.83;;;5.03;;
6077;SDS011;3067;49.470;10.394;2023-07-02T07:57:13;11.97;;;5.37;;
6077;SDS011;3067;49.470;10.394;2023-07-02T07:59:40;6.43;;;5.10;;
6077;SDS011;3067;49.470;10.394;2023-07-02T08:02:08;7.13;;;5.23;;
6077;SDS011;3067;49.470;10.394;2023-07-02T08:04:35;7.80;;;5.40;;
6077;SDS011;3067;49.470;10.394;2023-07-02T08:07:02;6.00;;;4.93;;
6077;SDS011;3067;49.470;10.394;2023-07-02T08:09:31;9.20;;;5.50;;
6077;SDS011;3067;49.470;10.394;2023-07-02T08:11:59;6.30;;;4.40;;
6077;SDS011;3067;49.470;10.394;2023-07-02T08:14:27;7.30;;;5.13;;
6077;SDS011;3067;49.470;10.394;2023-07-02T08:16:54;6.77;;;4.80;;
6077;SDS011;3067;49.470;10.394;2023-07-02T08:19:22;6.37;;;4.80;;
6077;SDS011;3067;49.470;10.394;2023-07-02T08:21:49;8.33;;;5.53;;
6077;SDS011;3067;49.470;10.394;2023-07-02T08:24:17;5.80;;;4.73;;
6077;SDS011;3067;49.470;10.394;2023-07-02T08:26:44;13.00;;;4.70;;
6077;SDS011;3067;49.470;10.394;2023-07-02T08:29:13;5.40;;;4.90;;
6077;SDS011;3067;49.470;10.394;2023-07-02T08:31:41;8.10;;;4.23;;
6077;SDS011;3067;49.470;10.394;2023-07-02T08:34:09;5.60;;;5.00;;
6077;SDS011;3067;49.470;10.394;2023-07-02T08:36:36;6.97;;;5.17;;
6077;SDS011;3067;49.470;10.394;2023-07-02T08:39:04;5.63;;;4.93;;
6077;SDS011;3067;49.470;10.394;2023-07-02T08:41:41;7.33;;;4.63;;
6077;SDS011;3067;49.470;10.394;2023-07-02T08:44:09;6.40;;;5.10;;
6077;SDS011;3067;49.470;10.394;2023-07-02T08:46:36;6.77;;;4.83;;
6077;SDS011;3067;49.470;10.394;2023-07-02T08:49:05;5.37;;;4.30;;
6077;SDS011;3067;49.470;10.394;2023-07-02T08:51:32;8.67;;;5.27;;
6077;SDS011;3067;49.470;10.394;2023-07-02T08:54:00;6.03;;;4.63;;
6077;SDS011;3067;49.470;10.394;2023-07-02T08:56:27;6.87;;;3.97;;
6077;SDS011;3067;49.470;10.394;2023-07-02T08:58:55;10.00;;;4.40;;
6077;SDS011;3067;49.470;10.394;2023-07-02T09:01:22;10.97;;;4.70;;
6077;SDS011;3067;49.470;10.394;2023-07-02T09:03:49;6.10;;;4.80;;
6077;SDS011;3067;49.470;10.394;2023-07-02T09:06:18;8.80;;;5.23;;
6077;SDS011;3067;49.470;10.394;2023-07-02T09:08:45;10.33;;;4.93;;
6077;SDS011;3067;49.470;10.394;2023-07-02T09:11:13;5.00;;;4.20;;
6077;SDS011;3067;49.470;10.394;2023-07-02T09:13:42;5.23;;;4.30;;
6077;SDS011;3067;49.470;10.394;2023-07-02T09:16:20;6.90;;;4.60;;
6077;SDS011;3067;49.470;10.394;2023-07-02T09:18:54;5.90;;;4.73;;
6077;SDS011;3067;49.470;10.394;2023-07-02T09:21:23;5.53;;;4.33;;
6077;SDS011;3067;49.470;10.394;2023-07-02T09:23:52;5.67;;;4.47;;
6077;SDS011;3067;49.470;10.394;2023-07-02T09:26:20;6.30;;;4.70;;
6077;SDS011;3067;49.470;10.394;2023-07-02T09:28:47;6.23;;;5.10;;
6077;SDS011;3067;49.470;10.394;2023-07-02T09:31:14;4.90;;;4.50;;
6077;SDS011;3067;49.470;10.394;2023-07-02T09:33:42;10.23;;;4.73;;
6077;SDS011;3067;49.470;10.394;2023-07-02T09:36:09;7.10;;;4.80;;
6077;SDS011;3067;49.470;10.394;2023-07-02T09:38:40;4.23;;;3.93;;
6077;SDS011;3067;49.470;10.394;2023-07-02T09:41:07;5.37;;;4.87;;
6077;SDS011;3067;49.470;10.394;2023-07-02T09:43:35;7.37;;;4.57;;
6077;SDS011;3067;49.470;10.394;2023-07-02T09:46:02;12.70;;;6.00;;
6077;SDS011;3067;49.470;10.394;2023-07-02T09:48:30;6.43;;;4.90;;
6077;SDS011;3067;49.470;10.394;2023-07-02T09:51:00;5.50;;;5.00;;
6077;SDS011;3067;49.470;10.394;2023-07-02T09:53:28;6.70;;;4.90;;
6077;SDS011;3067;49.470;10.394;2023-07-02T09:55:56;6.90;;;5.70;;
6077;SDS011;3067;49.470;10.394;2023-07-02T09:58:24;7.80;;;5.03;;
6077;SDS011;3067;49.470;10.394;2023-07-02T10:00:52;5.57;;;4.23;;
6077;SDS011;3067;49.470;10.394;2023-07-02T10:03:27;6.70;;;5.30;;
6077;SDS011;3067;49.470;10.394;2023-07-02T10:06:02;8.17;;;5.10;;
6077;SDS011;3067;49.470;10.394;2023-07-02T10:08:29;7.03;;;5.73;;
6077;SDS011;3067;49.470;10.394;2023-07-02T10:11:07;5.37;;;4.93;;
6077;SDS011;3067;49.470;10.394;2023-07-02T10:13:35;6.60;;;5.13;;
6077;SDS011;3067;49.470;10.394;2023-07-02T10:16:02;8.63;;;5.40;;
6077;SDS011;3067;49.470;10.394;2023-07-02T10:18:29;8.67;;;5.37;;
6077;SDS011;3067;49.470;10.394;2023-07-02T10:20:57;9.50;;;6.20;;
6077;SDS011;3067;49.470;10.394;2023-07-02T10:23:32;7.70;;;5.00;;
6077;SDS011;3067;49.470;10.394;2023-07-02T10:26:10;9.50;;;4.80;;
6077;SDS011;3067;49.470;10.394;2023-07-02T10:28:37;9.60;;;5.10;;
6077;SDS011;3067;49.470;10.394;2023-07-02T10:31:05;8.70;;;5.10;;
6077;SDS011;3067;49.470;10.394;2023-07-02T10:33:44;9.80;;;5.70;;
6077;SDS011;3067;49.470;10.394;2023-07-02T10:36:17;12.77;;;5.70;;
6077;SDS011;3067;49.470;10.394;2023-07-02T10:38:45;12.30;;;5.80;;
6077;SDS011;3067;49.470;10.394;2023-07-02T10:41:22;9.43;;;6.47;;
6077;SDS011;3067;49.470;10.394;2023-07-02T10:43:49;7.83;;;6.50;;
6077;SDS011;3067;49.470;10.394;2023-07-02T10:46:20;14.87;;;7.43;;
6077;SDS011;3067;49.470;10.394;2023-07-02T10:48:51;14.27;;;7.50;;
6077;SDS011;3067;49.470;10.394;2023-07-02T10:51:18;15.00;;;7.00;;
6077;SDS011;3067;49.470;10.394;2023-07-02T10:53:46;13.40;;;7.23;;
6077;SDS011;3067;49.470;10.394;2023-07-02T10:56:18;13.13;;;8.37;;
6077;SDS011;3067;49.470;10.394;2023-07-02T10:58:45;9.90;;;7.93;;
6077;SDS011;3067;49.470;10.394;2023-07-02T11:01:21;16.23;;;9.30;;
6077;SDS011;3067;49.470;10.394;2023-07-02T11:03:54;16.13;;;8.77;;
6077;SDS011;3067;49.470;10.394;2023-07-02T11:06:28;19.17;;;8.37;;
6077;SDS011;3067;49.470;10.394;2023-07-02T11:08:56;13.50;;;8.10;;
6077;SDS011;3067;49.470;10.394;2023-07-02T11:11:24;11.73;;;8.03;;
6077;SDS011;3067;49.470;10.394;2023-07-02T11:13:52;12.10;;;7.30;;
6077;SDS011;3067;49.470;10.394;2023-07-02T11:16:20;11.70;;;7.40;;
6077;SDS011;3067;49.470;10.394;2023-07-02T11:18:50;10.13;;;7.80;;
6077;SDS011;3067;49.470;10.394;2023-07-02T11:21:17;12.70;;;7.70;;
6077;SDS011;3067;49.470;10.394;2023-07-02T11:23:45;12.83;;;8.00;;
6077;SDS011;3067;49.470;10.394;2023-07-02T11:26:12;11.63;;;7.30;;
6077;SDS011;3067;49.470;10.394;2023-07-02T11:28:48;11.30;;;7.20;;
6077;SDS011;3067;49.470;10.394;2023-07-02T11:31:25;9.47;;;7.33;;
6077;SDS011;3067;49.470;10.394;2023-07-02T11:33:53;12.60;;;7.37;;
6077;SDS011;3067;49.470;10.394;2023-07-02T11:36:21;14.37;;;7.53;;
6077;SDS011;3067;49.470;10.394;2023-07-02T11:38:50;13.23;;;8.07;;
6077;SDS011;3067;49.470;10.394;2023-07-02T11:41:18;11.90;;;7.80;;
6077;SDS011;3067;49.470;10.394;2023-07-02T11:43:46;12.70;;;8.60;;
6077;SDS011;3067;49.470;10.394;2023-07-02T11:46:15;14.10;;;8.87;;
6077;SDS011;3067;49.470;10.394;2023-07-02T11:48:42;13.93;;;8.40;;
6077;SDS011;3067;49.470;10.394;2023-07-02T11:51:09;13.37;;;7.60;;
6077;SDS011;3067;49.470;10.394;2023-07-02T11:53:37;13.40;;;8.13;;
6077;SDS011;3067;49.470;10.394;2023-07-02T11:56:04;10.43;;;7.90;;
6077;SDS011;3067;49.470;10.394;2023-07-02T11:58:31;10.43;;;7.63;;
6077;SDS011;3067;49.470;10.394;2023-07-02T12:00:59;17.27;;;8.87;;
6077;SDS011;3067;49.470;10.394;2023-07-02T12:03:27;15.50;;;9.00;;
6077;SDS011;3067;49.470;10.394;2023-07-02T12:05:55;13.30;;;8.73;;
6077;SDS011;3067;49.470;10.394;2023-07-02T12:08:22;18.70;;;8.80;;
6077;SDS011;3067;49.470;10.394;2023-07-02T12:10:50;16.80;;;8.93;;
6077;SDS011;3067;49.470;10.394;2023-07-02T12:13:17;16.10;;;8.97;;
6077;SDS011;3067;49.470;10.394;2023-07-02T12:15:46;12.47;;;8.37;;
6077;SDS011;3067;49.470;10.394;2023-07-02T12:18:14;14.23;;;9.50;;
6077;SDS011;3067;49.470;10.394;2023-07-02T12:20:43;14.70;;;9.33;;
6077;SDS011;3067;49.470;10.394;2023-07-02T12:23:10;18.60;;;10.50;;
6077;SDS011;3067;49.470;10.394;2023-07-02T12:25:38;16.80;;;9.17;;
6077;SDS011;3067;49.470;10.394;2023-07-02T12:28:06;15.03;;;9.67;;
6077;SDS011;3067;49.470;10.394;2023-07-02T12:30:33;15.80;;;9.67;;
6077;SDS011;3067;49.470;10.394;2023-07-02T12:33:00;15.67;;;10.27;;
6077;SDS011;3067;49.470;10.394;2023-07-02T12:35:28;18.20;;;10.90;;
6077;SDS011;3067;49.470;10.394;2023-07-02T12:37:56;20.77;;;10.93;;
6077;SDS011;3067;49.470;10.394;2023-07-02T12:40:24;18.07;;;10.80;;
6077;SDS011;3067;49.470;10.394;2023-07-02T12:42:52;17.70;;;10.50;;
6077;SDS011;3067;49.470;10.394;2023-07-02T12:45:19;16.43;;;10.10;;
6077;SDS011;3067;49.470;10.394;2023-07-02T12:47:46;18.90;;;10.90;;
6077;SDS011;3067;49.470;10.394;2023-07-02T12:50:13;17.43;;;11.17;;
6077;SDS011;3067;49.470;10.394;2023-07-02T12:52:41;15.90;;;10.93;;
6077;SDS011;3067;49.470;10.394;2023-07-02T12:55:09;16.77;;;10.37;;
6077;SDS011;3067;49.470;10.394;2023-07-02T12:57:37;20.17;;;10.43;;
6077;SDS011;3067;49.470;10.394;2023-07-02T13:00:04;19.60;;;11.00;;
6077;SDS011;3067;49.470;10.394;2023-07-02T13:02:33;17.33;;;10.53;;
6077;SDS011;3067;49.470;10.394;2023-07-02T13:05:01;16.83;;;11.03;;
6077;SDS011;3067;49.470;10.394;2023-07-02T13:07:28;15.30;;;10.20;;
6077;SDS011;3067;49.470;10.394;2023-07-02T13:09:56;18.77;;;10.27;;
6077;SDS011;3067;49.470;10.394;2023-07-02T13:12:25;16.07;;;11.17;;
6077;SDS011;3067;49.470;10.394;2023-07-02T13:14:52;11.67;;;8.53;;
6077;SDS011;3067;49.470;10.394;2023-07-02T13:17:19;19.60;;;11.80;;
6077;SDS011;3067;49.470;10.394;2023-07-02T13:19:47;21.27;;;11.33;;
6077;SDS011;3067;49.470;10.394;2023-07-02T13:22:14;17.20;;;8.60;;
6077;SDS011;3067;49.470;10.394;2023-07-02T13:24:42;22.37;;;11.87;;
6077;SDS011;3067;49.470;10.394;2023-07-02T13:27:11;17.70;;;11.73;;
6077;SDS011;3067;49.470;10.394;2023-07-02T13:29:41;20.30;;;11.60;;
6077;SDS011;3067;49.470;10.394;2023-07-02T13:32:08;15.87;;;10.43;;
6077;SDS011;3067;49.470;10.394;2023-07-02T13:34:36;14.83;;;10.87;;
6077;SDS011;3067;49.470;10.394;2023-07-02T13:37:04;17.37;;;11.07;;
6077;SDS011;3067;49.470;10.394;2023-07-02T13:39:32;19.37;;;10.80;;
6077;SDS011;3067;49.470;10.394;2023-07-02T13:41:59;18.17;;;11.20;;
6077;SDS011;3067;49.470;10.394;2023-07-02T13:44:26;18.63;;;10.20;;
6077;SDS011;3067;49.470;10.394;2023-07-02T13:46:55;18.87;;;11.07;;
6077;SDS011;3067;49.470;10.394;2023-07-02T13:49:23;20.10;;;11.07;;
6077;SDS011;3067;49.470;10.394;2023-07-02T13:51:50;19.13;;;11.60;;
6077;SDS011;3067;49.470;10.394;2023-07-02T13:54:17;17.40;;;11.33;;
6077;SDS011;3067;49.470;10.394;2023-07-02T13:56:45;17.80;;;10.50;;
6077;SDS011;3067;49.470;10.394;2023-07-02T13:59:15;18.47;;;11.37;;
6077;SDS011;3067;49.470;10.394;2023-07-02T14:01:43;21.70;;;11.47;;
6077;SDS011;3067;49.470;10.394;2023-07-02T14:04:11;19.13;;;11.03;;
6077;SDS011;3067;49.470;10.394;2023-07-02T14:06:39;18.03;;;10.93;;
6077;SDS011;3067;49.470;10.394;2023-07-02T14:09:07;16.73;;;11.27;;
6077;SDS011;3067;49.470;10.394;2023-07-02T14:11:35;19.80;;;11.40;;
6077;SDS011;3067;49.470;10.394;2023-07-02T14:14:02;20.83;;;12.30;;
6077;SDS011;3067;49.470;10.394;2023-07-02T14:16:32;17.10;;;10.60;;
6077;SDS011;3067;49.470;10.394;2023-07-02T14:18:59;17.13;;;11.70;;
6077;SDS011;3067;49.470;10.394;2023-07-02T14:21:26;17.80;;;11.20;;
6077;SDS011;3067;49.470;10.394;2023-07-02T14:23:54;21.97;;;10.80;;
6077;SDS011;3067;49.470;10.394;2023-07-02T14:26:21;17.47;;;10.67;;
6077;SDS011;3067;49.470;10.394;2023-07-02T14:28:48;21.17;;;11.60;;
6077;SDS011;3067;49.470;10.394;2023-07-02T14:31:16;20.33;;;12.10;;
6077;SDS011;3067;49.470;10.394;2023-07-02T14:33:44;17.00;;;11.50;;
6077;SDS011;3067;49.470;10.394;2023-07-02T14:36:12;26.07;;;11.97;;
6077;SDS011;3067;49.470;10.394;2023-07-02T14:38:39;22.43;;;12.40;;
6077;SDS011;3067;49.470;10.394;2023-07-02T14:41:06;18.57;;;11.67;;
6077;SDS011;3067;49.470;10.394;2023-07-02T14:43:34;21.80;;;11.00;;
6077;SDS011;3067;49.470;10.394;2023-07-02T14:46:02;21.77;;;11.77;;
6077;SDS011;3067;49.470;10.394;2023-07-02T14:48:30;19.03;;;11.87;;
6077;SDS011;3067;49.470;10.394;2023-07-02T14:50:59;18.13;;;11.13;;
6077;SDS011;3067;49.470;10.394;2023-07-02T14:53:27;18.00;;;10.90;;
6077;SDS011;3067;49.470;10.394;2023-07-02T14:55:57;20.57;;;11.33;;
6077;SDS011;3067;49.470;10.394;2023-07-02T14:58:25;17.40;;;11.30;;
6077;SDS011;3067;49.470;10.394;2023-07-02T15:00:52;18.10;;;11.53;;